Time;durP1;ratioP1;P1;durP2;ratioP2;P2;SDS_P1;SDS_P2;PMS_P1;PMS_P2;Temp;Humidity;BMP_temperature;BMP_pressure;BME280_temperature;BME280_humidity;BME280_pressure;Samples;Min_cycle;Max_cycle;Signal;HPM_P1;HPM_P2
2021/08/26 00:00:06;;;;;;;12.15;4.65;;;16.60;99.90;;;;;;5110644;28;20102;-71
2021/08/26 00:08:01;;;;;;;9.80;4.70;;;16.40;99.90;;;;;;5110495;28;20177;-71
2021/08/26 00:10:30;;;;;;;10.95;5.45;;;16.40;99.90;;;;;;5110661;28;20043;-72
2021/08/26 00:12:59;;;;;;;11.70;5.43;;;16.40;99.90;;;;;;5110450;28;20043;-72
2021/08/26 00:15:27;;;;;;;11.75;5.28;;;16.40;99.90;;;;;;5110305;28;20576;-72
2021/08/26 00:17:55;;;;;;;12.52;5.10;;;16.30;99.90;;;;;;5109797;28;20499;-72
2021/08/26 00:20:22;;;;;;;10.60;4.65;;;16.30;99.90;;;;;;5110832;28;20051;-72
2021/08/26 00:22:49;;;;;;;9.93;4.85;;;16.30;99.90;;;;;;5110728;28;20109;-73
2021/08/26 00:25:16;;;;;;;11.68;5.43;;;16.30;99.90;;;;;;5110860;28;20052;-73
2021/08/26 00:27:43;;;;;;;8.52;4.15;;;16.30;99.90;;;;;;5109680;28;20047;-71
2021/08/26 00:30:11;;;;;;;10.02;4.20;;;16.30;99.90;;;;;;5110262;28;20058;-72
2021/08/26 00:32:40;;;;;;;11.65;4.75;;;16.30;99.90;;;;;;5110091;28;20108;-72
2021/08/26 00:35:07;;;;;;;10.18;4.75;;;16.40;99.90;;;;;;5109927;28;20048;-72
2021/08/26 00:37:34;;;;;;;10.65;4.70;;;16.40;99.90;;;;;;5111066;28;20047;-71
2021/08/26 00:40:01;;;;;;;10.88;4.20;;;16.60;99.90;;;;;;5111253;28;20561;-72
2021/08/26 00:42:29;;;;;;;7.78;3.97;;;16.60;99.90;;;;;;5111793;28;20138;-72
2021/08/26 00:44:56;;;;;;;9.05;4.43;;;16.50;99.90;;;;;;5111989;28;20083;-72
2021/08/26 00:47:24;;;;;;;10.02;3.83;;;16.60;99.90;;;;;;5112066;28;20056;-73
2021/08/26 00:49:54;;;;;;;10.63;3.83;;;16.60;99.90;;;;;;5112290;28;20043;-73
2021/08/26 00:52:21;;;;;;;8.95;3.75;;;16.40;99.90;;;;;;5112456;28;20055;-73
2021/08/26 00:54:48;;;;;;;11.45;4.60;;;16.50;99.90;;;;;;5112118;28;20043;-73
2021/08/26 00:57:15;;;;;;;11.18;4.07;;;16.60;99.90;;;;;;5111809;28;20478;-73
2021/08/26 00:59:43;;;;;;;8.52;4.30;;;16.70;99.90;;;;;;5111135;28;20077;-72
2021/08/26 01:02:16;;;;;;;10.57;4.15;;;16.80;99.90;;;;;;5112331;28;20047;-71
2021/08/26 01:04:48;;;;;;;9.60;4.05;;;16.80;99.90;;;;;;5112316;28;20117;-71
2021/08/26 01:07:25;;;;;;;8.27;4.13;;;16.70;99.90;;;;;;5111479;28;20135;-72
2021/08/26 01:09:58;;;;;;;9.23;3.88;;;16.70;99.90;;;;;;5113786;28;20052;-72
2021/08/26 01:12:27;;;;;;;9.68;3.90;;;16.70;99.90;;;;;;5116858;28;20136;-71
2021/08/26 01:14:55;;;;;;;8.85;4.55;;;16.60;99.90;;;;;;5116516;28;20048;-71
2021/08/26 01:17:23;;;;;;;9.65;4.20;;;16.50;99.90;;;;;;5116083;28;20056;-72
2021/08/26 01:19:51;;;;;;;9.43;4.68;;;16.50;99.90;;;;;;5114871;28;20613;-72
2021/08/26 01:22:20;;;;;;;12.38;4.13;;;16.50;99.90;;;;;;5115901;28;20055;-72
2021/08/26 01:24:53;;;;;;;9.95;3.95;;;16.50;99.90;;;;;;5115710;28;20082;-72
2021/08/26 01:27:22;;;;;;;14.10;4.50;;;16.50;99.90;;;;;;5115823;28;20136;-73
2021/08/26 01:29:50;;;;;;;15.25;4.65;;;16.50;99.90;;;;;;5115325;28;20107;-73
2021/08/26 01:32:19;;;;;;;11.50;4.10;;;16.60;99.90;;;;;;5115845;28;20048;-72
2021/08/26 01:34:47;;;;;;;11.40;4.50;;;16.50;99.90;;;;;;5115729;28;20050;-72
2021/08/26 01:37:17;;;;;;;13.77;4.70;;;16.50;99.90;;;;;;5115539;28;20059;-72
2021/08/26 01:39:47;;;;;;;10.05;4.82;;;16.60;99.90;;;;;;5115472;28;20047;-72
2021/08/26 01:42:15;;;;;;;10.68;4.50;;;16.60;99.90;;;;;;5116167;28;20070;-72
2021/08/26 01:44:44;;;;;;;13.35;4.40;;;16.60;99.90;;;;;;5115219;28;20462;-72
2021/08/26 01:47:15;;;;;;;11.20;5.20;;;16.50;99.90;;;;;;5115439;28;20056;-73
2021/08/26 01:49:42;;;;;;;9.20;4.03;;;16.40;99.90;;;;;;5115341;28;20446;-72
2021/08/26 01:52:09;;;;;;;9.38;4.05;;;16.40;99.90;;;;;;5115969;28;20464;-72
2021/08/26 01:54:36;;;;;;;10.25;4.53;;;16.40;99.90;;;;;;5115166;28;20059;-71
2021/08/26 01:57:04;;;;;;;11.32;4.80;;;16.30;99.90;;;;;;5115008;28;20051;-72
2021/08/26 01:59:31;;;;;;;13.98;5.13;;;16.30;99.90;;;;;;5114580;28;20105;-71
2021/08/26 02:01:59;;;;;;;12.43;5.00;;;16.20;99.90;;;;;;5115117;28;20101;-73
2021/08/26 02:04:26;;;;;;;12.35;5.50;;;16.30;99.90;;;;;;5115086;28;20473;-72
2021/08/26 02:06:53;;;;;;;11.50;4.72;;;16.20;99.90;;;;;;5115168;28;20401;-72
2021/08/26 02:09:20;;;;;;;13.60;5.25;;;16.20;99.90;;;;;;5114719;28;20051;-72
2021/08/26 02:11:47;;;;;;;10.25;4.30;;;16.20;99.90;;;;;;5114985;28;20073;-71
2021/08/26 02:14:14;;;;;;;10.20;4.85;;;16.10;99.90;;;;;;5114730;28;20048;-72
2021/08/26 02:16:41;;;;;;;11.80;5.15;;;16.00;99.90;;;;;;5114796;28;20101;-73
2021/08/26 02:19:09;;;;;;;10.95;4.93;;;16.00;99.90;;;;;;5114175;28;20101;-70
2021/08/26 02:21:36;;;;;;;11.50;4.80;;;16.00;99.90;;;;;;5114899;28;20577;-72
2021/08/26 02:24:04;;;;;;;21.30;6.30;;;16.00;99.90;;;;;;5114648;28;20054;-71
2021/08/26 02:26:32;;;;;;;10.25;5.53;;;16.00;99.90;;;;;;5114256;28;20047;-72
2021/08/26 02:28:59;;;;;;;12.73;5.60;;;16.00;99.90;;;;;;5113075;28;20054;-73
2021/08/26 02:31:27;;;;;;;9.85;5.60;;;16.00;99.90;;;;;;5114990;28;20051;-72
2021/08/26 02:33:54;;;;;;;13.82;5.50;;;16.00;99.90;;;;;;5114279;28;20124;-73
2021/08/26 02:36:22;;;;;;;12.82;5.80;;;16.00;99.90;;;;;;5114056;28;20055;-72
2021/08/26 02:38:50;;;;;;;16.20;6.68;;;16.00;99.90;;;;;;5113079;28;20384;-73
2021/08/26 02:41:17;;;;;;;10.60;5.45;;;16.00;99.90;;;;;;5113622;28;20060;-73
2021/08/26 02:43:44;;;;;;;11.10;5.93;;;16.00;99.90;;;;;;5113963;28;20059;-72
2021/08/26 02:46:11;;;;;;;13.15;5.60;;;15.90;99.90;;;;;;5113843;28;20083;-71
2021/08/26 02:48:38;;;;;;;16.20;6.30;;;15.80;99.90;;;;;;5113707;28;20051;-73
2021/08/26 02:51:05;;;;;;;13.70;5.85;;;15.80;99.90;;;;;;5113834;28;20052;-72
2021/08/26 02:53:34;;;;;;;10.55;5.85;;;15.80;99.90;;;;;;5113542;28;20454;-72
2021/08/26 02:56:00;;;;;;;13.65;7.22;;;15.80;99.90;;;;;;5113919;28;20052;-72
2021/08/26 02:58:28;;;;;;;16.15;7.05;;;15.70;99.90;;;;;;5113352;28;20132;-72
2021/08/26 03:00:55;;;;;;;13.18;6.90;;;15.60;99.90;;;;;;5114080;28;20553;-72
2021/08/26 03:03:22;;;;;;;12.45;7.30;;;15.60;99.90;;;;;;5114186;28;20419;-71
2021/08/26 03:05:49;;;;;;;12.18;6.15;;;15.50;99.90;;;;;;5113792;28;20069;-72
2021/08/26 03:08:17;;;;;;;16.45;6.95;;;15.50;99.90;;;;;;5113248;28;20052;-72
2021/08/26 03:10:46;;;;;;;13.73;6.82;;;15.40;99.90;;;;;;5114175;28;20146;-72
2021/08/26 03:13:13;;;;;;;18.13;7.18;;;15.40;99.90;;;;;;5114116;28;20096;-72
2021/08/26 03:15:40;;;;;;;14.07;6.82;;;15.30;99.90;;;;;;5114067;28;20048;-72
2021/08/26 03:18:07;;;;;;;14.48;8.27;;;15.20;99.90;;;;;;5113184;28;20048;-72
2021/08/26 03:20:34;;;;;;;16.50;8.35;;;15.10;99.90;;;;;;5113665;28;20096;-72
2021/08/26 03:23:01;;;;;;;17.08;8.57;;;15.00;99.90;;;;;;5113750;28;20111;-72
2021/08/26 03:25:28;;;;;;;15.20;8.02;;;14.90;99.90;;;;;;5113788;28;20093;-71
2021/08/26 03:27:56;;;;;;;13.85;7.47;;;14.90;99.90;;;;;;5113157;28;20048;-71
2021/08/26 03:30:23;;;;;;;16.30;9.30;;;14.70;99.90;;;;;;5113685;28;20540;-71
2021/08/26 03:32:51;;;;;;;17.85;9.13;;;14.60;99.90;;;;;;5113022;28;20469;-71
2021/08/26 03:35:19;;;;;;;17.63;9.27;;;14.60;99.90;;;;;;5113492;28;20055;-72
2021/08/26 03:37:46;;;;;;;16.63;8.65;;;14.60;99.90;;;;;;5113095;28;20047;-72
2021/08/26 03:40:13;;;;;;;17.98;9.13;;;14.60;99.90;;;;;;5113307;28;20565;-72
2021/08/26 03:42:40;;;;;;;18.17;9.98;;;14.60;99.90;;;;;;5113748;28;20043;-73
2021/08/26 03:45:10;;;;;;;16.48;8.93;;;14.50;99.90;;;;;;5113341;28;20052;-73
2021/08/26 03:47:37;;;;;;;17.65;9.43;;;14.50;99.90;;;;;;5112319;28;20412;-72
2021/08/26 03:50:04;;;;;;;18.30;9.75;;;14.50;99.90;;;;;;5113563;28;20565;-72
2021/08/26 03:52:31;;;;;;;18.65;10.02;;;14.50;99.90;;;;;;5113504;28;20121;-73
2021/08/26 03:54:58;;;;;;;15.80;9.52;;;14.50;99.90;;;;;;5112674;28;20508;-73
2021/08/26 03:57:25;;;;;;;16.70;9.30;;;14.40;99.90;;;;;;5113224;28;20439;-73
2021/08/26 03:59:52;;;;;;;17.92;9.75;;;14.40;99.90;;;;;;5112684;28;20047;-72
2021/08/26 04:02:21;;;;;;;18.05;10.15;;;14.40;99.90;;;;;;5113175;28;20054;-72
2021/08/26 04:04:48;;;;;;;16.17;9.88;;;14.30;99.90;;;;;;5112795;28;20043;-72
2021/08/26 04:07:17;;;;;;;17.73;10.25;;;14.40;99.90;;;;;;5112850;28;20055;-74
2021/08/26 04:09:45;;;;;;;20.45;10.43;;;14.30;99.90;;;;;;5112228;28;20451;-73
2021/08/26 04:12:12;;;;;;;22.50;11.25;;;14.30;99.90;;;;;;5113330;28;20423;-72
2021/08/26 04:14:39;;;;;;;20.00;12.30;;;14.20;99.90;;;;;;5112991;28;20051;-73
2021/08/26 04:17:06;;;;;;;19.52;12.18;;;14.30;99.90;;;;;;5112684;28;20048;-74
2021/08/26 04:19:35;;;;;;;24.23;12.70;;;14.30;99.90;;;;;;5112407;28;20094;-72
2021/08/26 04:22:02;;;;;;;23.52;12.98;;;14.30;99.90;;;;;;5112684;28;20057;-73
2021/08/26 04:24:29;;;;;;;21.92;12.10;;;14.30;99.90;;;;;;5112760;28;20048;-73
2021/08/26 04:26:56;;;;;;;23.92;13.65;;;14.20;99.90;;;;;;5112432;28;20044;-74
2021/08/26 04:29:23;;;;;;;21.75;12.73;;;14.30;99.90;;;;;;5111666;28;20047;-74
2021/08/26 04:31:50;;;;;;;26.48;14.52;;;14.30;99.90;;;;;;5112494;28;20052;-73
2021/08/26 04:34:17;;;;;;;28.35;15.48;;;14.20;99.90;;;;;;5112096;28;20040;-72
2021/08/26 04:36:45;;;;;;;24.55;14.40;;;14.20;99.90;;;;;;5112645;28;20086;-74
2021/08/26 04:39:12;;;;;;;26.77;15.20;;;14.10;99.90;;;;;;5111973;28;20059;-73
2021/08/26 04:41:39;;;;;;;25.92;14.77;;;14.10;99.90;;;;;;5112687;28;20077;-74
2021/08/26 04:44:07;;;;;;;23.20;14.00;;;14.30;99.90;;;;;;5112418;28;20054;-74
2021/08/26 04:46:34;;;;;;;25.45;14.32;;;14.20;99.90;;;;;;5113506;28;20073;-73
2021/08/26 04:49:01;;;;;;;25.70;14.13;;;14.00;99.90;;;;;;5112717;28;20082;-72
2021/08/26 04:51:28;;;;;;;25.65;14.55;;;14.00;99.90;;;;;;5114359;28;20052;-72
2021/08/26 04:53:56;;;;;;;25.48;14.48;;;14.00;99.90;;;;;;5114190;28;20047;-73
2021/08/26 04:56:23;;;;;;;23.88;13.88;;;14.00;99.90;;;;;;5113413;28;20052;-72
2021/08/26 04:58:50;;;;;;;24.98;15.20;;;14.00;99.90;;;;;;5113522;28;20159;-72
2021/08/26 05:01:17;;;;;;;28.02;16.05;;;13.90;99.90;;;;;;5113824;28;20465;-73
2021/08/26 05:03:44;;;;;;;26.52;16.58;;;13.90;99.90;;;;;;5113108;28;20101;-73
2021/08/26 05:06:11;;;;;;;27.48;16.80;;;14.00;99.90;;;;;;5112414;28;20092;-73
2021/08/26 05:08:38;;;;;;;26.95;16.83;;;14.10;99.90;;;;;;5111505;28;20047;-73
2021/08/26 05:11:06;;;;;;;27.67;16.05;;;14.10;99.90;;;;;;5112242;28;20047;-73
2021/08/26 05:13:33;;;;;;;25.10;15.82;;;14.10;99.90;;;;;;5112048;28;20573;-73
2021/08/26 05:16:01;;;;;;;26.98;16.38;;;14.20;99.90;;;;;;5112113;28;20516;-73
2021/08/26 05:18:27;;;;;;;22.75;14.85;;;14.20;99.90;;;;;;5111438;28;20051;-73
2021/08/26 05:20:54;;;;;;;19.90;13.15;;;14.30;99.90;;;;;;5112324;28;20100;-73
2021/08/26 05:23:22;;;;;;;24.38;14.32;;;14.40;99.90;;;;;;5111878;28;20191;-72
2021/08/26 05:25:49;;;;;;;22.35;13.15;;;14.40;99.90;;;;;;5112585;28;20431;-73
2021/08/26 05:28:17;;;;;;;20.95;13.63;;;14.50;99.90;;;;;;5111646;28;20043;-73
2021/08/26 05:30:44;;;;;;;20.95;13.95;;;14.40;99.90;;;;;;5111765;28;20047;-73
2021/08/26 05:33:11;;;;;;;21.00;12.73;;;14.40;99.90;;;;;;5112003;28;20040;-73
2021/08/26 05:35:38;;;;;;;20.83;12.07;;;14.40;99.90;;;;;;5112655;28;20047;-74
2021/08/26 05:38:05;;;;;;;25.02;12.40;;;14.40;99.90;;;;;;5111634;28;20124;-74
2021/08/26 05:40:32;;;;;;;17.08;11.10;;;14.50;99.90;;;;;;5112925;28;20071;-74
2021/08/26 05:42:59;;;;;;;19.08;11.63;;;14.40;99.90;;;;;;5112532;28;20572;-73
2021/08/26 05:45:28;;;;;;;19.98;11.65;;;14.40;99.90;;;;;;5112856;28;20051;-73
2021/08/26 05:47:58;;;;;;;19.23;12.13;;;14.40;99.90;;;;;;5112295;28;20052;-73
2021/08/26 05:50:26;;;;;;;24.92;11.70;;;14.40;99.90;;;;;;5112887;28;20100;-76
2021/08/26 05:52:53;;;;;;;19.15;12.65;;;14.40;99.90;;;;;;5111580;28;20482;-73
2021/08/26 05:55:20;;;;;;;20.90;12.80;;;14.40;99.90;;;;;;5112124;28;20389;-73
2021/08/26 05:57:47;;;;;;;16.85;11.38;;;14.50;99.90;;;;;;5115171;28;20051;-72
2021/08/26 06:00:15;;;;;;;17.60;11.15;;;14.70;99.90;;;;;;5114300;28;20059;-73
2021/08/26 06:02:44;;;;;;;15.50;9.63;;;14.80;99.90;;;;;;5115074;28;20055;-73
2021/08/26 06:05:11;;;;;;;15.30;9.93;;;14.80;99.90;;;;;;5114941;28;20052;-73
2021/08/26 06:07:39;;;;;;;16.65;10.07;;;14.80;99.90;;;;;;5114239;28;20335;-73
2021/08/26 06:10:08;;;;;;;15.18;10.00;;;14.90;99.90;;;;;;5114745;28;20636;-73
2021/08/26 06:12:39;;;;;;;13.98;10.02;;;14.90;99.90;;;;;;5115080;28;20053;-73
2021/08/26 06:15:07;;;;;;;20.05;9.73;;;14.90;99.90;;;;;;5115111;28;20066;-72
2021/08/26 06:17:34;;;;;;;14.98;9.23;;;14.90;99.90;;;;;;5114343;28;20044;-72
2021/08/26 06:20:05;;;;;;;18.95;11.93;;;14.90;99.90;;;;;;5115028;28;20107;-73
2021/08/26 06:22:32;;;;;;;16.15;11.43;;;14.90;99.90;;;;;;5114985;28;20047;-73
2021/08/26 06:24:59;;;;;;;16.60;11.98;;;14.80;99.90;;;;;;5115487;28;20047;-73
2021/08/26 06:27:26;;;;;;;15.40;10.05;;;14.80;99.90;;;;;;5115173;28;20173;-74
2021/08/26 06:29:53;;;;;;;15.98;10.38;;;14.80;99.90;;;;;;5114762;28;20047;-73
2021/08/26 06:32:20;;;;;;;15.07;9.50;;;14.80;99.90;;;;;;5115546;28;20043;-73
2021/08/26 06:34:47;;;;;;;16.98;10.20;;;14.80;99.90;;;;;;5115337;28;20485;-73
2021/08/26 06:37:15;;;;;;;16.60;11.30;;;14.80;99.90;;;;;;5114305;28;20051;-73
2021/08/26 06:39:42;;;;;;;18.05;11.25;;;14.80;99.90;;;;;;5114604;28;20112;-73
2021/08/26 06:42:09;;;;;;;18.88;11.23;;;14.80;99.90;;;;;;5114919;28;20044;-74
2021/08/26 06:44:36;;;;;;;19.75;11.10;;;14.80;99.90;;;;;;5114735;28;20051;-73
2021/08/26 06:47:04;;;;;;;17.27;10.48;;;14.90;99.90;;;;;;5114469;28;20287;-73
2021/08/26 06:49:31;;;;;;;17.02;10.70;;;14.80;99.90;;;;;;5113743;28;20040;-71
2021/08/26 06:51:59;;;;;;;17.60;10.90;;;14.80;99.90;;;;;;5114419;28;20088;-73
2021/08/26 06:54:27;;;;;;;14.35;9.48;;;15.00;99.90;;;;;;5114342;28;20048;-73
2021/08/26 06:56:55;;;;;;;15.60;10.60;;;15.00;99.90;;;;;;5114055;28;20455;-72
2021/08/26 06:59:22;;;;;;;14.70;9.60;;;15.00;99.90;;;;;;5113537;28;20078;-75
2021/08/26 07:01:49;;;;;;;13.65;9.45;;;15.20;99.90;;;;;;5113790;28;20043;-76
2021/08/26 07:04:16;;;;;;;12.63;7.72;;;15.20;99.90;;;;;;5113045;28;20044;-74
2021/08/26 07:06:43;;;;;;;12.40;7.57;;;15.20;99.90;;;;;;5112906;28;20048;-73
2021/08/26 07:09:10;;;;;;;14.57;6.95;;;15.30;99.90;;;;;;5112619;28;20495;-74
2021/08/26 07:11:39;;;;;;;11.30;7.15;;;15.30;99.90;;;;;;5113772;28;20059;-74
2021/08/26 07:14:06;;;;;;;10.45;6.75;;;15.30;99.90;;;;;;5113085;28;20549;-75
2021/08/26 07:16:33;;;;;;;11.20;6.45;;;15.50;99.90;;;;;;5113184;28;20066;-73
2021/08/26 07:19:00;;;;;;;12.15;7.00;;;15.50;99.90;;;;;;5112663;28;20051;-72
2021/08/26 07:21:27;;;;;;;9.10;5.85;;;15.60;99.90;;;;;;5113705;28;20043;-72
2021/08/26 07:23:54;;;;;;;10.15;6.55;;;15.60;99.90;;;;;;5113847;28;20055;-73
2021/08/26 07:26:22;;;;;;;10.55;6.22;;;15.60;99.90;;;;;;5113219;28;20051;-73
2021/08/26 07:28:51;;;;;;;9.80;5.55;;;15.80;99.90;;;;;;5113209;28;20044;-73
2021/08/26 07:31:18;;;;;;;9.00;5.15;;;16.00;99.90;;;;;;5113668;28;20055;-73
2021/08/26 07:33:45;;;;;;;10.40;5.03;;;16.20;99.90;;;;;;5113415;28;20048;-72
2021/08/26 07:36:12;;;;;;;7.72;4.35;;;16.30;99.90;;;;;;5113296;28;20047;-73
2021/08/26 07:38:39;;;;;;;9.48;4.50;;;16.20;99.90;;;;;;5113166;28;20043;-73
2021/08/26 07:41:06;;;;;;;10.10;3.83;;;16.30;99.90;;;;;;5113224;28;20100;-73
2021/08/26 07:43:35;;;;;;;10.80;4.07;;;16.40;99.90;;;;;;5113067;28;20048;-73
2021/08/26 07:46:05;;;;;;;8.65;3.60;;;16.30;99.90;;;;;;5112835;28;20079;-73
2021/08/26 07:48:32;;;;;;;6.47;3.10;;;16.10;99.90;;;;;;5113275;28;20254;-73
2021/08/26 07:51:03;;;;;;;6.63;3.38;;;16.00;99.90;;;;;;5114463;28;20051;-75
2021/08/26 07:53:30;;;;;;;9.05;3.50;;;15.90;99.90;;;;;;5113783;28;20405;-75
2021/08/26 07:55:57;;;;;;;6.95;3.53;;;16.00;99.90;;;;;;5113964;28;20077;-72
2021/08/26 07:58:24;;;;;;;6.68;2.95;;;15.90;99.90;;;;;;5113369;28;20052;-72
2021/08/26 08:00:51;;;;;;;6.05;2.88;;;16.00;99.90;;;;;;5113349;28;20048;-72
2021/08/26 08:03:20;;;;;;;7.57;3.10;;;16.20;99.90;;;;;;5113047;28;20151;-72
2021/08/26 08:05:47;;;;;;;9.77;3.45;;;16.50;99.90;;;;;;5112943;28;20081;-72
2021/08/26 08:08:14;;;;;;;8.38;2.95;;;16.70;99.90;;;;;;5112379;28;20044;-71
2021/08/26 08:10:41;;;;;;;7.13;2.80;;;16.70;99.90;;;;;;5112639;28;20047;-72
2021/08/26 08:13:08;;;;;;;5.57;2.30;;;16.70;99.90;;;;;;5112546;28;20051;-73
2021/08/26 08:15:35;;;;;;;6.32;2.90;;;17.20;99.90;;;;;;5112806;28;20043;-73
2021/08/26 08:18:02;;;;;;;5.72;2.58;;;17.20;99.90;;;;;;5112128;28;20101;-72
2021/08/26 08:20:30;;;;;;;5.18;2.30;;;17.20;99.90;;;;;;5112685;28;20047;-72
2021/08/26 08:22:57;;;;;;;9.13;2.45;;;17.10;99.90;;;;;;5112229;28;20048;-72
2021/08/26 08:25:24;;;;;;;4.45;2.00;;;17.20;99.90;;;;;;5113031;28;20047;-72
2021/08/26 08:27:51;;;;;;;4.68;2.15;;;17.60;99.90;;;;;;5111945;28;20054;-72
2021/08/26 08:30:19;;;;;;;6.05;2.63;;;17.50;99.90;;;;;;5112776;28;20075;-73
2021/08/26 08:32:46;;;;;;;5.63;2.45;;;17.30;99.90;;;;;;5113105;28;20063;-72
2021/08/26 08:35:13;;;;;;;7.25;2.08;;;17.50;99.90;;;;;;5112457;28;20514;-71
2021/08/26 08:37:41;;;;;;;6.72;2.10;;;18.10;99.90;;;;;;5111766;28;20051;-71
2021/08/26 08:40:09;;;;;;;5.80;2.35;;;18.40;99.90;;;;;;5110844;28;20047;-72
2021/08/26 08:42:36;;;;;;;6.65;2.03;;;18.60;99.90;;;;;;5111178;28;20252;-72
2021/08/26 08:45:03;;;;;;;5.78;2.08;;;19.00;99.90;;;;;;5111102;28;20105;-71
2021/08/26 08:47:33;;;;;;;8.73;2.42;;;19.20;99.90;;;;;;5110909;28;20458;-72
2021/08/26 08:50:01;;;;;;;5.78;1.85;;;19.40;99.90;;;;;;5111082;28;20092;-72
2021/08/26 08:52:28;;;;;;;6.63;2.10;;;19.60;99.90;;;;;;5110553;28;20048;-71
2021/08/26 08:54:57;;;;;;;5.82;2.45;;;20.10;99.90;;;;;;5109937;28;20047;-71
2021/08/26 08:57:24;;;;;;;4.57;1.95;;;20.00;99.90;;;;;;5109897;28;20048;-71
2021/08/26 08:59:50;;;;;;;9.18;2.55;;;19.60;99.90;;;;;;5109977;28;20605;-71
2021/08/26 09:02:17;;;;;;;7.32;2.00;;;20.00;99.90;;;;;;5109542;28;20566;-71
2021/08/26 09:04:58;;;;;;;13.65;2.45;;;20.90;99.90;;;;;;5109752;28;20097;-71
2021/08/26 09:07:27;;;;;;;4.55;1.73;;;21.00;99.90;;;;;;5109294;28;20086;-71
2021/08/26 09:09:55;;;;;;;7.00;1.80;;;21.20;99.90;;;;;;5109260;28;20100;-70
2021/08/26 09:12:44;;;;;;;4.10;1.80;;;20.60;99.90;;;;;;5109786;28;20457;-70
2021/08/26 09:15:13;;;;;;;3.83;1.60;;;20.40;99.90;;;;;;5109907;28;20097;-71
2021/08/26 09:17:40;;;;;;;5.10;2.15;;;19.80;99.90;;;;;;5108919;28;20496;-72
2021/08/26 09:20:11;;;;;;;3.42;1.70;;;20.50;99.90;;;;;;5109258;28;20047;-71
2021/08/26 09:22:38;;;;;;;6.15;2.17;;;21.00;99.90;;;;;;5109504;28;20056;-71
2021/08/26 09:25:09;;;;;;;4.60;2.13;;;22.00;99.90;;;;;;5109242;28;20092;-70
2021/08/26 09:27:39;;;;;;;5.78;1.70;;;23.30;99.90;;;;;;5108812;28;20055;-69
2021/08/26 09:30:09;;;;;;;5.40;1.77;;;24.20;99.90;;;;;;5109520;28;20112;-70
2021/08/26 09:32:37;;;;;;;8.95;1.95;;;24.40;99.90;;;;;;5112997;28;20298;-70
2021/08/26 09:35:18;;;;;;;2.78;1.40;;;24.40;99.90;;;;;;5113235;28;20086;-69
2021/08/26 09:37:48;;;;;;;5.70;2.10;;;23.40;99.90;;;;;;5112659;28;20097;-70
2021/08/26 09:40:18;;;;;;;4.95;1.83;;;22.70;99.90;;;;;;5113373;28;20047;-69
2021/08/26 09:42:54;;;;;;;4.40;2.03;;;22.20;99.90;;;;;;5112861;28;20453;-70
2021/08/26 09:45:23;;;;;;;3.78;1.70;;;21.80;99.90;;;;;;5112798;28;20097;-69
2021/08/26 09:48:02;;;;;;;4.55;1.80;;;21.40;99.90;;;;;;5112198;28;20051;-70
2021/08/26 09:50:44;;;;;;;4.13;1.55;;;20.80;99.90;;;;;;5113038;28;20535;-72
2021/08/26 09:53:13;;;;;;;5.05;1.67;;;22.10;99.90;;;;;;5112580;28;20051;-71
2021/08/26 09:56:02;;;;;;;5.25;1.90;;;23.20;99.90;;;;;;5112887;28;20047;-71
2021/08/26 09:58:31;;;;;;;4.68;2.20;;;23.10;99.90;;;;;;5112313;28;20048;-69
2021/08/26 10:01:16;;;;;;;5.88;2.95;;;21.90;99.90;;;;;;5112620;28;20059;-71
2021/08/26 10:03:43;;;;;;;5.78;2.13;;;20.70;99.90;;;;;;5112814;28;20051;-70
2021/08/26 10:06:11;;;;;;;3.67;1.63;;;20.40;99.90;;;;;;5112841;28;20310;-70
2021/08/26 10:08:41;;;;;;;4.63;1.52;;;20.40;99.90;;;;;;5112095;28;20365;-70
2021/08/26 10:11:11;;;;;;;4.50;1.73;;;20.20;99.90;;;;;;5112576;28;20048;-70
2021/08/26 10:13:39;;;;;;;6.07;1.70;;;20.00;99.90;;;;;;5112516;28;20051;-70
2021/08/26 10:16:06;;;;;;;6.18;2.10;;;19.90;99.90;;;;;;5112276;28;20051;-73
2021/08/26 10:18:35;;;;;;;4.75;2.03;;;20.40;99.90;;;;;;5111916;28;20097;-72
2021/08/26 10:21:02;;;;;;;5.00;1.92;;;21.80;99.90;;;;;;5112503;28;20439;-71
2021/08/26 10:23:30;;;;;;;4.43;1.90;;;22.60;99.90;;;;;;5112467;28;20124;-71
2021/08/26 10:26:05;;;;;;;4.45;1.90;;;23.70;99.90;;;;;;5111988;28;20048;-71
2021/08/26 10:28:35;;;;;;;4.78;1.65;;;24.70;99.90;;;;;;5111237;28;20423;-70
2021/08/26 10:31:24;;;;;;;4.15;1.92;;;25.70;99.90;;;;;;5112014;28;20050;-70
2021/08/26 10:33:51;;;;;;;5.10;1.95;;;26.10;99.90;;;;;;5112064;28;20073;-70
2021/08/26 10:36:19;;;;;;;5.65;2.22;;;26.30;99.90;;;;;;5112110;28;20048;-70
2021/08/26 10:38:46;;;;;;;3.75;1.90;;;25.60;99.90;;;;;;5111021;28;20062;-70
2021/08/26 10:41:30;;;;;;;4.28;1.55;;;24.20;99.90;;;;;;5112116;28;20471;-70
2021/08/26 10:44:00;;;;;;;5.30;2.10;;;23.60;99.90;;;;;;5111790;28;20161;-70
2021/08/26 10:46:47;;;;;;;5.32;2.20;;;24.50;99.90;;;;;;5111637;28;20140;-70
2021/08/26 10:49:14;;;;;;;5.25;2.00;;;25.20;99.90;;;;;;5110891;28;20127;-70
2021/08/26 10:51:43;;;;;;;5.28;1.73;;;25.30;99.90;;;;;;5111897;28;20083;-70
2021/08/26 10:54:29;;;;;;;4.32;1.75;;;24.80;99.90;;;;;;5111545;28;20044;-71
2021/08/26 10:56:56;;;;;;;6.85;2.15;;;24.00;99.90;;;;;;5110931;28;20208;-70
2021/08/26 10:59:34;;;;;;;5.10;2.15;;;22.90;99.90;;;;;;5110890;28;20100;-70
2021/08/26 11:02:01;;;;;;;5.55;1.90;;;21.80;99.90;;;;;;5111308;28;20048;-70
2021/08/26 11:04:32;;;;;;;5.97;1.83;;;21.30;99.90;;;;;;5111594;28;20087;-70
2021/08/26 11:07:00;;;;;;;6.38;1.90;;;21.10;99.90;;;;;;5111614;28;20127;-70
2021/08/26 11:09:34;;;;;;;5.20;1.92;;;20.70;99.90;;;;;;5111118;28;20470;-71
2021/08/26 11:12:28;;;;;;;3.75;1.60;;;20.80;99.90;;;;;;5111219;28;20088;-70
2021/08/26 11:14:59;;;;;;;4.30;1.80;;;20.90;99.90;;;;;;5111483;28;20313;-70
2021/08/26 11:17:32;;;;;;;4.45;1.95;;;20.50;99.90;;;;;;5111109;28;20098;-71
2021/08/26 11:20:20;;;;;;;10.50;3.10;;;21.10;99.90;;;;;;5111488;28;20059;-71
2021/08/26 11:23:01;;;;;;;;;;;22.80;99.90;;;;;;5111362;28;20079;-71
2021/08/26 11:25:28;;;;;;;7.70;2.42;;;24.20;99.90;;;;;;5111056;28;20440;-70
2021/08/26 11:28:35;;;;;;;4.63;1.75;;;24.40;99.90;;;;;;5110204;28;20048;-70
2021/08/26 11:31:20;;;;;;;5.72;2.28;;;25.00;99.90;;;;;;5110085;28;20525;-71
2021/08/26 11:33:48;;;;;;;5.30;1.70;;;26.10;99.90;;;;;;5111078;28;20537;-71
2021/08/26 11:36:16;;;;;;;5.05;1.73;;;25.60;99.90;;;;;;5110708;28;20125;-70
2021/08/26 11:38:56;;;;;;;5.35;1.60;;;25.70;99.90;;;;;;5109718;28;20047;-71
2021/08/26 11:41:24;;;;;;;5.43;1.75;;;26.50;99.90;;;;;;5110541;28;20048;-70
2021/08/26 11:43:53;;;;;;;3.60;1.27;;;26.30;99.90;;;;;;5110383;28;20389;-70
2021/08/26 11:46:20;;;;;;;4.65;1.70;;;27.20;99.90;;;;;;5110429;28;20523;-71
2021/08/26 11:48:55;;;;;;;4.47;1.75;;;26.90;99.90;;;;;;5109974;28;20092;-71
2021/08/26 11:51:31;;;;;;;5.85;2.15;;;27.00;99.90;;;;;;5110738;28;20091;-71
2021/08/26 11:54:12;;;;;;;3.53;1.70;;;26.70;99.90;;;;;;5110053;28;20059;-71
2021/08/26 11:56:47;;;;;;;4.60;1.42;;;27.30;99.90;;;;;;5110294;28;20059;-71
2021/08/26 11:59:30;;;;;;;6.97;1.90;;;27.80;99.90;;;;;;5109720;28;20499;-70
2021/08/26 12:02:21;;;;;;;4.53;1.80;;;28.10;99.90;;;;;;5110186;28;20048;-70
2021/08/26 12:04:49;;;;;;;3.63;1.55;;;27.70;99.90;;;;;;5110673;28;20488;-70
2021/08/26 12:07:25;;;;;;;5.65;1.90;;;27.80;99.90;;;;;;5109862;28;20047;-70
2021/08/26 12:09:52;;;;;;;3.50;1.70;;;27.50;99.90;;;;;;5109678;28;20047;-70
2021/08/26 12:12:19;;;;;;;6.00;1.67;;;28.10;99.90;;;;;;5109949;28;20056;-70
2021/08/26 12:14:48;;;;;;;3.47;1.70;;;28.40;99.90;;;;;;5110124;28;20096;-70
2021/08/26 12:17:17;;;;;;;3.97;1.63;;;28.80;99.90;;;;;;5109651;28;20040;-70
2021/08/26 12:19:45;;;;;;;5.85;2.30;;;28.30;99.90;;;;;;5109675;28;20044;-70
2021/08/26 12:22:14;;;;;;;4.38;1.55;;;28.30;99.90;;;;;;5109701;28;20051;-70
2021/08/26 12:24:50;;;;;;;3.60;1.50;;;28.40;99.90;;;;;;5110104;28;20473;-70
2021/08/26 12:27:17;;;;;;;6.65;2.20;;;28.90;99.90;;;;;;5109770;28;20055;-70
2021/08/26 12:29:46;;;;;;;5.63;1.80;;;29.50;99.90;;;;;;5109306;28;20079;-70
2021/08/26 12:32:35;;;;;;;3.08;1.70;;;28.20;98.30;;;;;;5109736;28;20078;-71
2021/08/26 12:35:20;;;;;;;3.63;1.67;;;27.60;97.80;;;;;;5110082;28;20495;-71
2021/08/26 12:37:59;;;;;;;3.80;1.40;;;26.50;99.90;;;;;;5109269;28;20298;-71
2021/08/26 12:40:28;;;;;;;4.63;1.67;;;26.70;99.90;;;;;;5109566;28;20093;-70
2021/08/26 12:43:00;;;;;;;8.00;1.70;;;26.90;99.00;;;;;;5109286;28;20079;-70
2021/08/26 12:45:28;;;;;;;5.00;1.75;;;27.80;99.90;;;;;;5109574;28;20052;-70
2021/08/26 12:47:56;;;;;;;4.18;1.40;;;28.30;99.90;;;;;;5108786;28;20108;-70
2021/08/26 12:50:31;;;;;;;5.78;1.83;;;29.10;98.20;;;;;;5109556;28;20047;-70
2021/08/26 12:52:58;;;;;;;4.57;1.73;;;27.10;98.80;;;;;;5109264;28;20504;-70
2021/08/26 12:55:25;;;;;;;5.68;1.70;;;26.50;99.90;;;;;;5109655;28;20123;-71